Time;durP1;ratioP1;P1;durP2;ratioP2;P2;SDS_P1;SDS_P2;PMS_P1;PMS_P2;Temp;Humidity;BMP_temperature;BMP_pressure;BME280_temperature;BME280_humidity;BME280_pressure;Samples;Min_cycle;Max_cycle;Signal;HPM_P1;HPM_P2
2022/05/30 00:01:33;;;;;;;2.17;1.43;;;;;;;;;;5096206;28;20292;-73
2022/05/30 00:04:01;;;;;;;2.33;1.27;;;;;;;;;;5091314;28;20259;-72
2022/05/30 00:06:29;;;;;;;3.13;1.77;;;;;;;;;;5089692;28;20559;-73
2022/05/30 00:08:57;;;;;;;2.93;1.30;;;;;;;;;;5087390;28;20205;-73
2022/05/30 00:11:27;;;;;;;3.90;1.40;;;;;;;;;;5089697;28;20197;-72
2022/05/30 00:13:55;;;;;;;1.57;1.47;;;;;;;;;;5086352;28;20294;-72
2022/05/30 00:16:25;;;;;;;1.80;1.70;;;;;;;;;;5087056;28;20249;-72
2022/05/30 00:18:53;;;;;;;2.03;1.33;;;;;;;;;;5088978;28;20279;-73
2022/05/30 00:21:22;;;;;;;2.47;1.10;;;;;;;;;;5087884;28;20197;-73
2022/05/30 00:23:53;;;;;;;2.80;1.50;;;;;;;;;;5084824;28;20202;-73
2022/05/30 00:26:21;;;;;;;2.57;1.37;;;;;;;;;;5087186;28;20222;-73
2022/05/30 00:28:50;;;;;;;1.40;1.20;;;;;;;;;;5082928;28;20234;-73
2022/05/30 00:31:19;;;;;;;2.10;1.20;;;;;;;;;;5087279;28;20233;-73
2022/05/30 00:33:49;;;;;;;1.40;1.30;;;;;;;;;;5098222;28;20269;-71
2022/05/30 00:36:17;;;;;;;2.07;1.10;;;;;;;;;;5108843;28;20829;-71
2022/05/30 00:38:45;;;;;;;7.20;1.17;;;;;;;;;;5099408;28;20197;-72
2022/05/30 00:41:14;;;;;;;4.07;1.30;;;;;;;;;;5100830;28;20572;-73
2022/05/30 00:43:44;;;;;;;1.83;0.90;;;;;;;;;;5098752;28;20228;-73
2022/05/30 00:46:15;;;;;;;2.90;1.50;;;;;;;;;;5090031;28;20667;-74
2022/05/30 00:48:47;;;;;;;2.93;1.40;;;;;;;;;;5085542;28;20295;-74
2022/05/30 00:51:19;;;;;;;1.77;1.30;;;;;;;;;;5113445;28;20216;-72
2022/05/30 00:53:48;;;;;;;1.60;1.50;;;;;;;;;;5104914;27;20233;-73
2022/05/30 00:56:16;;;;;;;3.00;1.40;;;;;;;;;;5097873;28;20272;-72
2022/05/30 00:58:47;;;;;;;1.80;1.13;;;;;;;;;;5098304;28;20224;-73
2022/05/30 01:01:15;;;;;;;1.47;1.37;;;;;;;;;;5098924;28;20326;-68
2022/05/30 01:06:34;;;;;;;2.13;1.20;;;;;;;;;;5119253;28;20708;-67
2022/05/30 01:09:05;;;;;;;1.50;1.40;;;;;;;;;;5119090;28;20710;-67
2022/05/30 01:11:50;;;;;;;2.33;1.57;;;;;;;;;;5119427;28;20236;-69
2022/05/30 01:14:18;;;;;;;1.37;1.27;;;;;;;;;;5118944;28;20239;-69
2022/05/30 01:16:46;;;;;;;1.97;1.10;;;;;;;;;;5101877;28;20222;-69
2022/05/30 01:19:21;;;;;;;6.37;1.50;;;;;;;;;;5094487;28;20201;-68
2022/05/30 01:22:02;;;;;;;1.47;1.20;;;;;;;;;;5098360;28;20204;-69
2022/05/30 01:24:37;;;;;;;2.43;1.50;;;;;;;;;;5097367;28;20209;-68
2022/05/30 01:27:12;;;;;;;2.30;1.30;;;;;;;;;;5098328;28;20257;-68
2022/05/30 01:29:43;;;;;;;1.73;1.30;;;;;;;;;;5097969;28;20233;-69
2022/05/30 01:32:17;;;;;;;2.43;1.10;;;;;;;;;;5098610;28;20225;-68
2022/05/30 01:34:45;;;;;;;2.43;1.20;;;;;;;;;;5098588;28;20237;-68
2022/05/30 01:37:13;;;;;;;2.13;1.37;;;;;;;;;;5098374;28;20261;-68
2022/05/30 01:39:41;;;;;;;1.40;1.17;;;;;;;;;;5098002;28;20205;-68
2022/05/30 01:42:09;;;;;;;1.20;1.10;;;;;;;;;;5097974;28;20290;-68
2022/05/30 01:44:37;;;;;;;2.40;1.10;;;;;;;;;;5098026;28;20235;-68
2022/05/30 01:47:07;;;;;;;2.77;1.37;;;;;;;;;;5097165;28;20253;-69
2022/05/30 01:49:35;;;;;;;2.07;1.20;;;;;;;;;;5096112;28;20269;-68
2022/05/30 01:52:03;;;;;;;2.30;1.50;;;;;;;;;;5096437;28;20240;-68
2022/05/30 01:54:31;;;;;;;4.00;1.57;;;;;;;;;;5089761;28;20707;-68
2022/05/30 01:56:59;;;;;;;1.43;1.33;;;;;;;;;;5096014;28;20221;-68
2022/05/30 01:59:27;;;;;;;2.43;1.20;;;;;;;;;;5095652;28;20233;-68
2022/05/30 02:01:55;;;;;;;3.83;1.00;;;;;;;;;;5096750;28;20210;-69
2022/05/30 02:04:25;;;;;;;0.80;0.80;;;;;;;;;;5098042;28;20209;-67
2022/05/30 02:06:53;;;;;;;2.30;1.40;;;;;;;;;;5097889;28;20248;-69
2022/05/30 02:09:22;;;;;;;1.10;1.00;;;;;;;;;;5097933;28;20213;-68
2022/05/30 02:11:50;;;;;;;2.93;1.07;;;;;;;;;;5098080;28;20228;-69
2022/05/30 02:14:18;;;;;;;2.03;1.30;;;;;;;;;;5097760;28;20244;-68
2022/05/30 02:17:02;;;;;;;1.33;1.00;;;;;;;;;;5097908;28;20236;-69
2022/05/30 02:19:32;;;;;;;1.13;1.03;;;;;;;;;;5097945;28;20236;-69
2022/05/30 02:22:01;;;;;;;1.10;1.00;;;;;;;;;;5098030;28;20236;-68
2022/05/30 02:24:29;;;;;;;2.83;1.33;;;;;;;;;;5097317;28;20205;-69
2022/05/30 02:26:57;;;;;;;2.10;1.20;;;;;;;;;;5097838;28;20313;-69
2022/05/30 02:29:25;;;;;;;4.20;1.43;;;;;;;;;;5097335;28;20201;-68
2022/05/30 02:31:53;;;;;;;1.90;1.33;;;;;;;;;;5097472;28;20652;-66
2022/05/30 02:37:08;;;;;;;1.60;1.00;;;;;;;;;;5097570;28;20256;-68
2022/05/30 02:39:36;;;;;;;2.23;1.27;;;;;;;;;;5097321;28;20244;-68
2022/05/30 02:42:05;;;;;;;1.60;1.30;;;;;;;;;;5097573;28;20247;-68
2022/05/30 02:44:33;;;;;;;2.50;1.30;;;;;;;;;;5097038;28;20614;-73
2022/05/30 02:47:01;;;;;;;3.00;1.40;;;;;;;;;;5097367;28;20309;-73
2022/05/30 02:49:29;;;;;;;1.80;1.00;;;;;;;;;;5097180;28;20667;-73
2022/05/30 02:51:57;;;;;;;1.40;1.30;;;;;;;;;;5099094;28;20209;-74
2022/05/30 02:54:27;;;;;;;4.90;1.10;;;;;;;;;;5095394;28;20284;-73
2022/05/30 02:56:56;;;;;;;3.63;1.40;;;;;;;;;;5101341;28;20233;-72
2022/05/30 02:59:24;;;;;;;1.43;1.20;;;;;;;;;;5101437;28;20206;-72
2022/05/30 03:01:52;;;;;;;1.33;1.23;;;;;;;;;;5101355;28;20643;-72
2022/05/30 03:04:20;;;;;;;2.33;1.07;;;;;;;;;;5101571;28;20235;-72
2022/05/30 03:06:48;;;;;;;5.00;1.07;;;;;;;;;;5101362;28;20253;-72
2022/05/30 03:09:18;;;;;;;1.20;1.10;;;;;;;;;;5101301;28;20235;-72
2022/05/30 03:11:47;;;;;;;3.73;1.60;;;;;;;;;;5101438;28;20235;-72
2022/05/30 03:14:16;;;;;;;1.07;0.90;;;;;;;;;;5100855;28;20201;-73
2022/05/30 03:16:44;;;;;;;1.50;1.17;;;;;;;;;;5100976;28;20257;-72
2022/05/30 03:19:12;;;;;;;1.07;0.90;;;;;;;;;;5101004;28;20284;-72
2022/05/30 03:21:40;;;;;;;2.87;0.97;;;;;;;;;;5101010;28;20231;-72
2022/05/30 03:24:09;;;;;;;1.70;1.20;;;;;;;;;;5100858;28;20202;-72
2022/05/30 03:26:37;;;;;;;2.70;1.30;;;;;;;;;;5100777;28;20590;-72
2022/05/30 03:29:06;;;;;;;2.47;1.07;;;;;;;;;;5100407;28;20762;-72
2022/05/30 03:31:34;;;;;;;1.80;1.30;;;;;;;;;;5096932;28;20206;-72
2022/05/30 03:34:03;;;;;;;1.57;0.93;;;;;;;;;;5099419;28;20665;-74
2022/05/30 03:36:32;;;;;;;1.40;1.30;;;;;;;;;;5084969;28;20218;-73
2022/05/30 03:39:01;;;;;;;3.53;1.57;;;;;;;;;;5089355;28;20233;-73
2022/05/30 03:41:29;;;;;;;1.80;1.20;;;;;;;;;;5088323;28;20209;-72
2022/05/30 03:44:00;;;;;;;2.43;1.20;;;;;;;;;;5085227;28;20245;-73
2022/05/30 03:46:31;;;;;;;1.63;1.27;;;;;;;;;;5097004;28;20217;-72
2022/05/30 03:48:59;;;;;;;1.00;0.90;;;;;;;;;;5099693;28;20229;-73
2022/05/30 03:51:27;;;;;;;1.90;1.80;;;;;;;;;;5099628;28;20735;-73
2022/05/30 03:53:55;;;;;;;1.10;1.00;;;;;;;;;;5097593;28;20251;-73
2022/05/30 03:56:23;;;;;;;1.83;1.23;;;;;;;;;;5101395;28;20244;-73
2022/05/30 03:58:51;;;;;;;0.80;0.80;;;;;;;;;;5100716;28;20226;-73
2022/05/30 04:01:19;;;;;;;3.27;1.27;;;;;;;;;;5100660;28;20224;-73
2022/05/30 04:03:48;;;;;;;1.47;0.97;;;;;;;;;;5100055;28;20198;-72
2022/05/30 04:06:17;;;;;;;3.07;1.40;;;;;;;;;;5100165;28;20225;-73
2022/05/30 04:08:46;;;;;;;4.07;1.13;;;;;;;;;;5100048;28;20208;-73
2022/05/30 04:11:14;;;;;;;1.93;1.33;;;;;;;;;;5098337;28;20732;-74
2022/05/30 04:13:42;;;;;;;2.00;1.00;;;;;;;;;;5099808;28;20673;-74
2022/05/30 04:16:11;;;;;;;2.83;1.47;;;;;;;;;;5099564;28;20249;-73
2022/05/30 04:18:39;;;;;;;2.57;1.37;;;;;;;;;;5099759;28;20696;-73
2022/05/30 04:21:09;;;;;;;1.77;1.20;;;;;;;;;;5099656;28;20217;-72
2022/05/30 04:23:37;;;;;;;2.10;1.37;;;;;;;;;;5099903;28;20236;-74
2022/05/30 04:26:05;;;;;;;7.73;1.40;;;;;;;;;;5096595;28;20252;-73
2022/05/30 04:28:33;;;;;;;1.50;1.00;;;;;;;;;;5098557;28;20193;-74
2022/05/30 04:31:05;;;;;;;3.33;1.23;;;;;;;;;;5097972;28;20232;-74
2022/05/30 04:33:34;;;;;;;1.37;1.20;;;;;;;;;;5101256;28;20197;-68
2022/05/30 04:36:03;;;;;;;11.13;6.10;;;;;;;;;;5099007;28;20233;-66
2022/05/30 04:38:32;;;;;;;4.63;2.50;;;;;;;;;;5098221;28;20688;-69
2022/05/30 04:41:00;;;;;;;2.27;1.20;;;;;;;;;;5099151;28;20225;-72
2022/05/30 04:43:28;;;;;;;4.73;1.50;;;;;;;;;;5098824;28;20730;-71
2022/05/30 04:46:03;;;;;;;2.33;1.23;;;;;;;;;;5100106;28;20221;-71
2022/05/30 04:48:31;;;;;;;1.67;1.27;;;;;;;;;;5096145;28;20312;-71
2022/05/30 04:51:04;;;;;;;1.47;1.00;;;;;;;;;;5119813;28;20239;-70
2022/05/30 04:53:33;;;;;;;3.67;1.30;;;;;;;;;;5107132;28;20209;-70
2022/05/30 04:56:02;;;;;;;2.60;1.40;;;;;;;;;;5098950;28;20588;-70
2022/05/30 04:58:30;;;;;;;3.30;1.50;;;;;;;;;;5098705;28;20233;-69
2022/05/30 05:00:59;;;;;;;2.43;1.10;;;;;;;;;;5099063;28;20206;-72
2022/05/30 05:03:28;;;;;;;1.77;1.20;;;;;;;;;;5097890;28;20193;-71
2022/05/30 05:06:00;;;;;;;2.90;1.50;;;;;;;;;;5099058;28;20278;-68
2022/05/30 05:08:29;;;;;;;1.63;1.50;;;;;;;;;;5098851;28;20201;-69
2022/05/30 05:11:00;;;;;;;1.83;1.33;;;;;;;;;;5098438;28;20233;-70
2022/05/30 05:13:28;;;;;;;1.90;1.63;;;;;;;;;;5099456;28;20204;-68
2022/05/30 05:15:56;;;;;;;2.87;1.20;;;;;;;;;;5098402;28;20222;-69
2022/05/30 05:18:25;;;;;;;0.97;0.93;;;;;;;;;;5098396;28;20233;-69
2022/05/30 05:20:52;;;;;;;2.33;1.50;;;;;;;;;;5101805;28;20212;-68
2022/05/30 05:23:21;;;;;;;2.73;1.10;;;;;;;;;;5118856;28;20236;-64
2022/05/30 05:25:49;;;;;;;1.90;1.30;;;;;;;;;;5118847;28;20267;-63
2022/05/30 05:28:18;;;;;;;3.53;1.50;;;;;;;;;;5096703;28;20193;-64
2022/05/30 05:30:46;;;;;;;1.40;1.23;;;;;;;;;;5098919;28;20225;-64
2022/05/30 05:33:14;;;;;;;3.43;1.93;;;;;;;;;;5103907;28;20296;-64
2022/05/30 05:35:42;;;;;;;4.00;1.60;;;;;;;;;;5118142;28;20261;-64
2022/05/30 05:38:10;;;;;;;2.30;2.10;;;;;;;;;;5118059;28;20765;-64
2022/05/30 05:40:44;;;;;;;2.27;1.37;;;;;;;;;;5118788;28;20219;-64
2022/05/30 05:43:12;;;;;;;2.33;2.10;;;;;;;;;;5118228;28;20264;-64
2022/05/30 05:45:43;;;;;;;2.37;1.70;;;;;;;;;;5118223;28;20221;-64
2022/05/30 05:48:11;;;;;;;2.57;1.20;;;;;;;;;;5118308;28;20224;-63
2022/05/30 05:50:40;;;;;;;2.83;1.27;;;;;;;;;;5118216;28;20691;-63
2022/05/30 05:53:10;;;;;;;3.10;1.27;;;;;;;;;;5109022;28;20229;-64
2022/05/30 05:55:38;;;;;;;1.53;1.10;;;;;;;;;;5097770;28;20259;-64
2022/05/30 05:58:07;;;;;;;4.00;1.90;;;;;;;;;;5097539;28;20259;-64
2022/05/30 06:00:35;;;;;;;2.30;1.40;;;;;;;;;;5097981;28;20205;-64
2022/05/30 06:03:04;;;;;;;2.30;2.10;;;;;;;;;;5097505;28;20697;-63
2022/05/30 06:05:32;;;;;;;5.07;2.17;;;;;;;;;;5097640;28;20233;-64
2022/05/30 06:08:01;;;;;;;2.90;1.80;;;;;;;;;;5097696;28;20232;-64
2022/05/30 06:10:29;;;;;;;1.63;1.27;;;;;;;;;;5097825;28;20244;-68
2022/05/30 06:12:57;;;;;;;3.57;1.63;;;;;;;;;;5096728;28;20576;-67
2022/05/30 06:15:25;;;;;;;3.37;2.13;;;;;;;;;;5092795;28;20221;-68
2022/05/30 06:17:53;;;;;;;1.87;1.77;;;;;;;;;;5100446;28;20202;-67
2022/05/30 06:20:22;;;;;;;3.77;1.50;;;;;;;;;;5098037;28;20734;-67
2022/05/30 06:22:50;;;;;;;3.13;1.90;;;;;;;;;;5095906;28;20219;-66
2022/05/30 06:25:18;;;;;;;1.83;1.60;;;;;;;;;;5098386;28;20193;-67
2022/05/30 06:27:46;;;;;;;2.70;1.20;;;;;;;;;;5097376;28;20201;-66
2022/05/30 06:30:15;;;;;;;2.03;1.73;;;;;;;;;;5097627;28;20197;-68
2022/05/30 06:32:43;;;;;;;4.50;1.70;;;;;;;;;;5098069;28;20227;-66
2022/05/30 06:35:11;;;;;;;2.23;1.43;;;;;;;;;;5099082;28;20228;-65
2022/05/30 06:37:40;;;;;;;1.70;1.43;;;;;;;;;;5097161;28;20217;-66
2022/05/30 06:40:09;;;;;;;3.13;2.00;;;;;;;;;;5096872;28;20765;-67
2022/05/30 06:42:38;;;;;;;2.77;1.33;;;;;;;;;;5097251;28;20205;-65
2022/05/30 06:45:07;;;;;;;230.60;83.60;;;;;;;;;;5096897;28;20642;-65
2022/05/30 06:47:48;;;;;;;5.27;3.70;;;;;;;;;;5054263;28;20250;-66
2022/05/30 06:50:17;;;;;;;4.53;1.90;;;;;;;;;;5054767;28;20218;-66
2022/05/30 06:52:47;;;;;;;2.87;1.40;;;;;;;;;;5050512;28;20617;-67
2022/05/30 06:55:15;;;;;;;2.63;1.70;;;;;;;;;;5054688;28;20207;-67
2022/05/30 07:00:30;;;;;;;2.20;1.10;;;;;;;;;;5055772;28;20292;-66
2022/05/30 07:02:58;;;;;;;5.10;1.10;;;;;;;;;;5056636;28;20234;-67
2022/05/30 07:05:27;;;;;;;1.60;1.50;;;;;;;;;;5054154;28;20655;-66
2022/05/30 07:07:58;;;;;;;4.50;1.23;;;;;;;;;;5053901;28;20203;-66
2022/05/30 07:10:27;;;;;;;1.70;1.17;;;;;;;;;;5055771;28;20226;-66
2022/05/30 07:12:57;;;;;;;2.17;1.43;;;;;;;;;;5054608;28;20219;-67
2022/05/30 07:15:25;;;;;;;2.63;1.83;;;;;;;;;;5055536;28;20354;-67
2022/05/30 07:17:53;;;;;;;4.17;1.70;;;;;;;;;;5054659;28;20413;-68
2022/05/30 07:20:21;;;;;;;1.53;1.30;;;;;;;;;;5041667;28;20318;-70
2022/05/30 07:22:49;;;;;;;3.80;1.70;;;;;;;;;;5055489;28;20237;-71
2022/05/30 07:25:18;;;;;;;2.60;1.40;;;;;;;;;;5073037;28;20625;-71
2022/05/30 07:27:46;;;;;;;3.13;1.30;;;;;;;;;;5097323;28;20194;-71
2022/05/30 07:30:16;;;;;;;4.13;1.30;;;;;;;;;;5096951;28;20665;-71
2022/05/30 07:32:44;;;;;;;1.10;1.00;;;;;;;;;;5097725;28;20293;-71
2022/05/30 07:35:12;;;;;;;5.80;2.00;;;;;;;;;;5096990;28;20229;-70
2022/05/30 07:37:42;;;;;;;1.73;1.23;;;;;;;;;;5100178;28;20221;-69
2022/05/30 07:40:11;;;;;;;1.87;1.53;;;;;;;;;;5103236;28;20590;-70
2022/05/30 07:42:40;;;;;;;2.33;1.10;;;;;;;;;;5098428;28;20197;-70
2022/05/30 07:45:09;;;;;;;2.37;1.53;;;;;;;;;;5100289;28;20201;-69
2022/05/30 07:47:37;;;;;;;10.50;1.73;;;;;;;;;;5100828;28;20194;-70
2022/05/30 07:50:06;;;;;;;3.93;1.60;;;;;;;;;;5100236;28;20250;-69
2022/05/30 07:52:35;;;;;;;3.03;1.53;;;;;;;;;;5102971;28;20232;-70
2022/05/30 07:55:03;;;;;;;3.17;1.13;;;;;;;;;;5100044;28;20233;-71
2022/05/30 08:00:19;;;;;;;2.33;1.43;;;;;;;;;;5095820;28;20634;-71
2022/05/30 08:02:49;;;;;;;2.37;1.40;;;;;;;;;;5091323;28;20916;-71
2022/05/30 08:05:18;;;;;;;3.10;1.40;;;;;;;;;;5101050;28;20198;-70
2022/05/30 08:07:47;;;;;;;3.43;1.30;;;;;;;;;;5101543;28;21617;-70
2022/05/30 08:10:16;;;;;;;2.67;1.93;;;;;;;;;;5097056;28;20194;-70
2022/05/30 08:12:44;;;;;;;1.80;1.67;;;;;;;;;;5099784;28;20193;-70
2022/05/30 08:15:12;;;;;;;3.77;1.50;;;;;;;;;;5096489;28;20236;-70
2022/05/30 08:17:41;;;;;;;2.63;1.20;;;;;;;;;;5099935;28;20611;-70
2022/05/30 08:20:12;;;;;;;2.80;1.30;;;;;;;;;;5099304;28;20221;-71
2022/05/30 08:22:40;;;;;;;3.40;1.47;;;;;;;;;;5099939;28;20197;-71
2022/05/30 08:25:14;;;;;;;3.13;1.40;;;;;;;;;;5100539;28;20208;-71
2022/05/30 08:27:42;;;;;;;2.00;1.17;;;;;;;;;;5099288;28;20545;-71
2022/05/30 08:30:11;;;;;;;2.20;1.73;;;;;;;;;;5100913;28;20243;-71
2022/05/30 08:32:40;;;;;;;3.03;1.50;;;;;;;;;;5099068;28;20829;-71
2022/05/30 08:35:09;;;;;;;3.43;1.40;;;;;;;;;;5099209;28;20574;-71
2022/05/30 08:37:39;;;;;;;4.30;1.40;;;;;;;;;;5099324;28;20217;-68
2022/05/30 08:42:55;;;;;;;3.17;1.83;;;;;;;;;;5098655;28;20229;-69
2022/05/30 08:45:25;;;;;;;1.40;1.30;;;;;;;;;;5096127;28;20201;-67
2022/05/30 08:47:54;;;;;;;2.97;1.50;;;;;;;;;;5100965;28;20272;-65
2022/05/30 08:50:24;;;;;;;2.13;1.30;;;;;;;;;;5104611;28;20197;-68
2022/05/30 08:52:59;;;;;;;2.40;1.40;;;;;;;;;;5097349;28;20571;-65
2022/05/30 08:55:28;;;;;;;2.20;1.50;;;;;;;;;;5095854;28;20221;-68
2022/05/30 08:58:00;;;;;;;4.10;1.40;;;;;;;;;;5099176;28;20241;-64
2022/05/30 09:00:30;;;;;;;1.77;1.27;;;;;;;;;;5099934;28;20260;-64
2022/05/30 09:03:01;;;;;;;3.47;1.33;;;;;;;;;;5099439;28;20213;-64
2022/05/30 09:05:32;;;;;;;2.93;1.43;;;;;;;;;;5098758;28;20229;-64
2022/05/30 09:08:25;;;;;;;1.50;1.10;;;;;;;;;;5101084;28;20193;-65
2022/05/30 09:10:55;;;;;;;3.43;1.63;;;;;;;;;;5099127;28;20254;-63
2022/05/30 09:13:25;;;;;;;2.50;1.47;;;;;;;;;;5097980;28;20206;-66
2022/05/30 09:15:57;;;;;;;1.23;1.13;;;;;;;;;;5097668;28;20250;-66
2022/05/30 09:18:29;;;;;;;3.47;1.30;;;;;;;;;;5104234;28;20538;-66
2022/05/30 09:20:57;;;;;;;3.17;1.40;;;;;;;;;;5099575;28;20588;-68
2022/05/30 09:23:26;;;;;;;2.63;1.40;;;;;;;;;;5100413;28;20683;-67
2022/05/30 09:26:00;;;;;;;2.00;1.60;;;;;;;;;;5098051;28;20278;-68
2022/05/30 09:28:29;;;;;;;3.93;1.40;;;;;;;;;;5094835;28;20626;-67
2022/05/30 09:31:02;;;;;;;1.83;1.37;;;;;;;;;;5098816;28;20230;-66
2022/05/30 09:33:31;;;;;;;1.80;1.20;;;;;;;;;;5095166;28;20205;-66
2022/05/30 09:36:13;;;;;;;2.40;1.40;;;;;;;;;;5098597;28;20251;-69
2022/05/30 09:38:45;;;;;;;3.07;1.20;;;;;;;;;;5099301;28;20193;-69
2022/05/30 09:41:14;;;;;;;1.67;1.50;;;;;;;;;;5097877;28;20252;-66
2022/05/30 09:43:44;;;;;;;4.93;1.30;;;;;;;;;;5095403;28;20197;-66
2022/05/30 09:46:17;;;;;;;5.13;1.50;;;;;;;;;;5100850;28;20232;-66
2022/05/30 09:49:01;;;;;;;1.93;1.07;;;;;;;;;;5101298;28;20225;-69
2022/05/30 09:51:30;;;;;;;3.50;1.30;;;;;;;;;;5098022;28;20701;-66
2022/05/30 09:54:00;;;;;;;2.77;1.80;;;;;;;;;;5099600;28;20631;-66
2022/05/30 09:56:29;;;;;;;3.30;1.47;;;;;;;;;;5097513;28;20284;-66
2022/05/30 09:59:01;;;;;;;1.70;1.10;;;;;;;;;;5097928;28;20194;-68
2022/05/30 10:01:30;;;;;;;1.43;0.90;;;;;;;;;;5098618;28;20300;-69
2022/05/30 10:04:13;;;;;;;2.03;0.97;;;;;;;;;;5104578;28;20204;-69
2022/05/30 10:06:41;;;;;;;4.97;1.77;;;;;;;;;;5117815;28;20224;-67
2022/05/30 10:09:12;;;;;;;4.27;1.30;;;;;;;;;;5118279;28;20201;-67
2022/05/30 10:11:41;;;;;;;2.07;1.00;;;;;;;;;;5117632;28;20200;-67
2022/05/30 10:14:18;;;;;;;2.63;1.10;;;;;;;;;;5118024;28;20204;-68
2022/05/30 10:16:46;;;;;;;1.90;1.30;;;;;;;;;;5107004;28;20301;-67
2022/05/30 10:19:23;;;;;;;2.53;1.17;;;;;;;;;;5088607;28;20238;-67
2022/05/30 10:30:30;;;;;;;3.60;1.30;;;;;;;;;;5097398;28;20561;-68
2022/05/30 10:33:04;;;;;;;3.20;1.67;;;;;;;;;;5097472;28;20236;-67
2022/05/30 10:35:36;;;;;;;1.67;1.40;;;;;;;;;;5097492;28;20231;-66
2022/05/30 10:38:11;;;;;;;5.93;1.43;;;;;;;;;;5097229;28;20248;-68
2022/05/30 10:41:03;;;;;;;2.13;1.47;;;;;;;;;;5096773;28;20274;-69
2022/05/30 10:43:45;;;;;;;1.97;1.20;;;;;;;;;;5099532;28;20197;-68
2022/05/30 10:46:17;;;;;;;2.20;1.30;;;;;;;;;;5097128;28;20584;-67
2022/05/30 10:48:51;;;;;;;2.40;1.50;;;;;;;;;;5096008;28;20229;-67
2022/05/30 10:51:22;;;;;;;2.37;1.20;;;;;;;;;;5095879;28;20284;-67
2022/05/30 10:53:54;;;;;;;5.17;1.50;;;;;;;;;;5096970;28;20202;-65
2022/05/30 10:56:27;;;;;;;5.70;1.20;;;;;;;;;;5097399;28;20230;-67
2022/05/30 10:58:58;;;;;;;1.50;1.30;;;;;;;;;;5096579;28;20209;-67
2022/05/30 11:01:37;;;;;;;1.83;1.23;;;;;;;;;;5097211;28;20684;-67
2022/05/30 11:04:09;;;;;;;1.37;1.10;;;;;;;;;;5098377;28;20280;-65
2022/05/30 11:06:40;;;;;;;2.80;1.07;;;;;;;;;;5099231;28;20270;-65
2022/05/30 11:09:12;;;;;;;1.47;1.20;;;;;;;;;;5097245;28;20236;-65
2022/05/30 11:11:44;;;;;;;2.27;1.60;;;;;;;;;;5099269;28;20189;-64
2022/05/30 11:14:16;;;;;;;1.80;1.67;;;;;;;;;;5109636;28;20201;-65
2022/05/30 11:16:48;;;;;;;1.43;1.10;;;;;;;;;;5107178;28;20535;-62
2022/05/30 11:19:20;;;;;;;3.27;1.20;;;;;;;;;;5103230;28;20284;-65
2022/05/30 11:21:52;;;;;;;1.53;1.20;;;;;;;;;;5100943;28;20225;-65
2022/05/30 11:24:20;;;;;;;3.50;1.37;;;;;;;;;;5100575;28;20209;-64
2022/05/30 11:27:06;;;;;;;1.17;1.00;;;;;;;;;;5100414;28;20661;-65
2022/05/30 11:29:58;;;;;;;3.33;1.30;;;;;;;;;;5100591;28;20231;-65
2022/05/30 11:32:41;;;;;;;5.10;1.43;;;;;;;;;;5085588;28;20206;-64
2022/05/30 11:35:16;;;;;;;2.07;1.37;;;;;;;;;;5105911;28;20205;-65
2022/05/30 11:37:51;;;;;;;5.53;1.77;;;;;;;;;;5100039;28;20236;-64
2022/05/30 11:40:22;;;;;;;1.53;1.40;;;;;;;;;;5101115;28;20212;-63
2022/05/30 11:42:57;;;;;;;6.43;1.70;;;;;;;;;;5097169;28;20225;-63
2022/05/30 11:45:34;;;;;;;1.60;1.50;;;;;;;;;;5100411;28;20221;-63
2022/05/30 11:48:06;;;;;;;1.80;1.27;;;;;;;;;;5101882;28;20259;-64
2022/05/30 11:50:35;;;;;;;2.90;1.70;;;;;;;;;;5098214;28;20197;-63
2022/05/30 11:53:15;;;;;;;3.47;1.30;;;;;;;;;;5099858;28;20240;-62
2022/05/30 11:55:48;;;;;;;1.30;1.13;;;;;;;;;;5099902;28;20715;-62
2022/05/30 11:58:23;;;;;;;2.97;1.10;;;;;;;;;;5100159;28;20206;-65
2022/05/30 12:00:53;;;;;;;1.97;1.50;;;;;;;;;;5099760;28;20232;-64
2022/05/30 12:03:47;;;;;;;2.67;1.40;;;;;;;;;;5099802;28;20202;-64
2022/05/30 12:06:44;;;;;;;1.43;1.10;;;;;;;;;;5065379;28;20221;-64
2022/05/30 12:09:22;;;;;;;2.60;1.20;;;;;;;;;;5099781;28;20232;-64
2022/05/30 12:12:05;;;;;;;2.80;1.60;;;;;;;;;;5106903;28;20245;-64
2022/05/30 12:14:51;;;;;;;1.67;1.20;;;;;;;;;;5105187;28;20206;-64
2022/05/30 12:17:28;;;;;;;3.33;1.20;;;;;;;;;;5108023;28;20256;-64
2022/05/30 12:25:47;;;;;;;2.00;1.40;;;;;;;;;;5108848;28;20251;-62
2022/05/30 12:28:34;;;;;;;2.60;1.10;;;;;;;;;;5109135;28;20229;-63
2022/05/30 12:31:03;;;;;;;4.67;1.33;;;;;;;;;;5109735;28;20258;-63
2022/05/30 12:33:46;;;;;;;2.13;1.10;;;;;;;;;;5108851;28;20233;-62
2022/05/30 12:36:31;;;;;;;1.60;1.50;;;;;;;;;;5108144;28;20249;-63
2022/05/30 12:39:01;;;;;;;1.43;1.33;;;;;;;;;;5107926;28;20269;-65
2022/05/30 12:41:30;;;;;;;3.23;1.10;;;;;;;;;;5110876;28;20286;-67
2022/05/30 12:43:59;;;;;;;1.30;1.00;;;;;;;;;;5105244;28;20251;-67
2022/05/30 12:46:28;;;;;;;2.13;1.23;;;;;;;;;;5100456;28;20671;-67
2022/05/30 12:49:06;;;;;;;4.83;1.00;;;;;;;;;;5099014;28;20268;-67
2022/05/30 12:51:43;;;;;;;2.40;1.00;;;;;;;;;;5099373;28;20202;-65
2022/05/30 12:54:26;;;;;;;3.47;0.90;;;;;;;;;;5099138;28;20289;-65
2022/05/30 12:57:01;;;;;;;2.83;1.17;;;;;;;;;;5098949;28;20306;-65
2022/05/30 12:59:33;;;;;;;2.40;1.10;;;;;;;;;;5105458;28;20222;-65
2022/05/30 13:02:03;;;;;;;2.33;1.40;;;;;;;;;;5108941;28;21343;-65
2022/05/30 13:04:35;;;;;;;4.17;1.53;;;;;;;;;;5114666;28;20197;-65
2022/05/30 13:07:17;;;;;;;2.30;1.23;;;;;;;;;;5119258;27;20265;-65
2022/05/30 13:09:53;;;;;;;3.10;1.10;;;;;;;;;;5119218;27;20287;-65
2022/05/30 13:12:51;;;;;;;2.30;1.60;;;;;;;;;;5119062;28;20240;-65
2022/05/30 13:15:22;;;;;;;2.37;1.17;;;;;;;;;;5119153;28;20216;-65
2022/05/30 13:17:53;;;;;;;1.87;1.10;;;;;;;;;;5102178;28;20213;-65
2022/05/30 13:20:23;;;;;;;1.70;1.17;;;;;;;;;;5087179;28;20546;-63
2022/05/30 13:22:52;;;;;;;2.17;1.60;;;;;;;;;;5098730;28;20278;-62
2022/05/30 13:25:23;;;;;;;3.37;1.47;;;;;;;;;;5099134;28;20252;-62
2022/05/30 13:27:51;;;;;;;5.00;1.20;;;;;;;;;;5098138;28;20210;-64
2022/05/30 13:30:22;;;;;;;1.53;1.10;;;;;;;;;;5108697;28;20270;-64
2022/05/30 13:32:51;;;;;;;10.67;1.47;;;;;;;;;;5118962;28;20234;-64
2022/05/30 13:35:19;;;;;;;4.23;1.40;;;;;;;;;;5098343;28;20202;-63
2022/05/30 13:37:50;;;;;;;3.07;2.07;;;;;;;;;;5094964;28;20632;-65
2022/05/30 13:40:22;;;;;;;2.03;1.47;;;;;;;;;;5098254;28;20213;-64
2022/05/30 13:42:53;;;;;;;4.23;1.50;;;;;;;;;;5115235;28;20231;-63
2022/05/30 13:45:22;;;;;;;1.80;1.10;;;;;;;;;;5118589;28;20216;-64
2022/05/30 13:48:01;;;;;;;1.70;1.30;;;;;;;;;;5118152;28;20320;-64
2022/05/30 13:50:50;;;;;;;3.33;1.43;;;;;;;;;;5118248;28;20308;-64
2022/05/30 13:53:19;;;;;;;2.50;1.20;;;;;;;;;;5118332;28;20237;-65
2022/05/30 13:55:52;;;;;;;2.37;1.23;;;;;;;;;;5117852;28;20687;-62
2022/05/30 13:58:21;;;;;;;3.77;1.63;;;;;;;;;;5108769;28;20225;-63
2022/05/30 14:00:49;;;;;;;3.13;1.40;;;;;;;;;;5106448;28;20212;-62
2022/05/30 14:03:17;;;;;;;1.40;1.13;;;;;;;;;;5107558;28;20722;-63
2022/05/30 14:05:47;;;;;;;1.83;1.30;;;;;;;;;;5108676;28;20226;-62
2022/05/30 14:08:17;;;;;;;2.17;1.30;;;;;;;;;;5102772;28;20230;-64
2022/05/30 14:10:46;;;;;;;2.37;1.57;;;;;;;;;;5105643;28;20242;-65
2022/05/30 14:13:28;;;;;;;3.17;1.17;;;;;;;;;;5106017;28;20208;-64
2022/05/30 14:16:05;;;;;;;2.30;1.37;;;;;;;;;;5107654;28;20240;-66
2022/05/30 14:18:44;;;;;;;1.60;1.17;;;;;;;;;;5106474;28;20228;-65
2022/05/30 14:21:17;;;;;;;1.30;1.00;;;;;;;;;;5104471;28;20561;-65
2022/05/30 14:23:46;;;;;;;2.63;1.30;;;;;;;;;;5106084;28;20748;-64
2022/05/30 14:26:22;;;;;;;2.47;1.30;;;;;;;;;;5107610;28;20727;-64
2022/05/30 14:28:53;;;;;;;2.17;1.67;;;;;;;;;;5103334;28;20210;-64
2022/05/30 14:31:22;;;;;;;2.30;1.33;;;;;;;;;;5106694;28;20222;-64
2022/05/30 14:33:58;;;;;;;2.13;1.10;;;;;;;;;;5103753;28;20254;-64
2022/05/30 14:36:28;;;;;;;4.10;1.30;;;;;;;;;;5103043;28;20216;-63
2022/05/30 14:39:00;;;;;;;2.37;1.10;;;;;;;;;;5099829;28;20206;-64
2022/05/30 14:41:33;;;;;;;114.40;79.50;;;;;;;;;;5094631;28;20228;-63
2022/05/30 14:44:03;;;;;;;3.63;2.10;;;;;;;;;;5112793;28;20254;-64
2022/05/30 14:46:34;;;;;;;3.50;1.47;;;;;;;;;;5117978;28;20283;-64
2022/05/30 14:49:02;;;;;;;1.30;1.20;;;;;;;;;;5120888;28;20243;-63
2022/05/30 14:51:32;;;;;;;2.87;1.20;;;;;;;;;;5102960;28;20229;-64
2022/05/30 14:54:03;;;;;;;3.67;1.33;;;;;;;;;;5101188;28;20722;-63
2022/05/30 14:56:32;;;;;;;3.30;1.30;;;;;;;;;;5101242;28;20221;-64
2022/05/30 14:59:01;;;;;;;4.00;1.57;;;;;;;;;;5100877;28;20210;-64
2022/05/30 15:01:45;;;;;;;1.57;1.27;;;;;;;;;;5101307;28;20216;-63
2022/05/30 15:04:13;;;;;;;2.70;1.10;;;;;;;;;;5101206;28;20234;-63
2022/05/30 15:06:42;;;;;;;1.30;1.20;;;;;;;;;;5100852;28;20591;-64
2022/05/30 15:09:12;;;;;;;1.27;1.17;;;;;;;;;;5108550;28;20236;-64
2022/05/30 15:11:40;;;;;;;4.27;1.10;;;;;;;;;;5088043;28;20232;-63
2022/05/30 15:14:11;;;;;;;1.10;1.00;;;;;;;;;;5101605;28;20634;-64
2022/05/30 15:16:39;;;;;;;2.57;1.53;;;;;;;;;;5111544;28;20236;-64
2022/05/30 15:19:09;;;;;;;2.40;1.20;;;;;;;;;;5106139;28;20259;-64
2022/05/30 15:21:38;;;;;;;3.27;1.20;;;;;;;;;;5100555;28;20270;-64
2022/05/30 15:24:10;;;;;;;2.27;1.40;;;;;;;;;;5100241;28;20261;-64
2022/05/30 15:26:38;;;;;;;1.60;1.50;;;;;;;;;;5110812;28;20251;-64
2022/05/30 15:29:06;;;;;;;2.20;1.10;;;;;;;;;;5120951;28;20239;-63
2022/05/30 15:31:34;;;;;;;2.80;1.40;;;;;;;;;;5110252;28;20254;-63
2022/05/30 15:34:03;;;;;;;2.43;1.40;;;;;;;;;;5101889;28;20193;-64